Time;durP1;ratioP1;P1;durP2;ratioP2;P2;SDS_P1;SDS_P2;PMS_P1;PMS_P2;Temp;Humidity;BMP_temperature;BMP_pressure;BME280_temperature;BME280_humidity;BME280_pressure;Samples;Min_cycle;Max_cycle;Signal;HPM_P1;HPM_P2
2023/04/07 00:01:30;;;;;;;20.90;17.00;;;;;;;-0.84;97.25;96504.42;109298;1271;22515;-86
2023/04/07 00:04:01;;;;;;;18.70;15.20;;;;;;;-0.84;97.09;96503.11;109331;1264;22635;-86
2023/04/07 00:06:32;;;;;;;20.10;16.70;;;;;;;-0.85;97.40;96505.87;109261;1271;22515;-86
2023/04/07 00:09:03;;;;;;;19.70;14.70;;;;;;;-0.88;97.56;96499.46;109274;1271;24382;-86
2023/04/07 00:11:34;;;;;;;22.10;16.90;;;;;;;-0.91;97.59;96496.20;109294;1264;22934;-86
2023/04/07 00:14:05;;;;;;;21.60;16.60;;;;;;;-0.94;97.47;96493.66;109262;1271;22534;-87
2023/04/07 00:16:36;;;;;;;18.90;16.30;;;;;;;-0.96;97.92;96493.96;109308;1268;25291;-87
2023/04/07 00:19:06;;;;;;;21.20;18.10;;;;;;;-0.97;97.87;96495.45;109219;1271;22543;-87
2023/04/07 00:21:37;;;;;;;18.90;15.40;;;;;;;-0.96;98.04;96494.45;109290;1271;22534;-87
2023/04/07 00:24:09;;;;;;;18.90;16.00;;;;;;;-0.94;97.98;96490.75;109275;1271;25321;-87
2023/04/07 00:26:40;;;;;;;20.20;16.10;;;;;;;-0.93;98.14;96488.55;109284;1264;22544;-86
2023/04/07 00:29:10;;;;;;;20.80;17.70;;;;;;;-0.92;97.99;96487.65;109444;1249;22552;-86
2023/04/07 00:31:41;;;;;;;22.10;17.40;;;;;;;-0.90;97.98;96488.08;109445;1270;22651;-87
2023/04/07 00:34:12;;;;;;;21.60;18.10;;;;;;;-0.89;97.68;96484.87;109460;1266;22583;-87
2023/04/07 00:36:43;;;;;;;18.50;15.70;;;;;;;-0.90;97.99;96481.67;109409;1270;22513;-86
2023/04/07 00:39:14;;;;;;;23.70;17.40;;;;;;;-0.89;97.79;96478.46;109342;1271;23264;-88
2023/04/07 00:41:45;;;;;;;20.20;17.00;;;;;;;-0.88;97.88;96476.90;109401;1270;22527;-89
2023/04/07 00:44:16;;;;;;;19.80;15.70;;;;;;;-0.88;97.83;96475.34;109383;1265;22511;-88
2023/04/07 00:46:49;;;;;;;20.80;16.30;;;;;;;-0.87;97.72;96468.64;109416;1270;22553;-88
2023/04/07 00:49:20;;;;;;;20.40;15.90;;;;;;;-0.87;97.57;96462.67;109389;1270;22649;-88
2023/04/07 00:51:51;;;;;;;20.30;16.10;;;;;;;-0.85;97.92;96457.83;109445;1266;22514;-88
2023/04/07 00:54:23;;;;;;;20.20;16.70;;;;;;;-0.84;97.54;96464.35;109374;1264;22997;-88
2023/04/07 00:56:54;;;;;;;19.20;15.30;;;;;;;-0.82;97.79;96466.70;109443;1269;23156;-88
2023/04/07 00:59:25;;;;;;;17.80;14.20;;;;;;;-0.79;97.86;96465.71;109480;1264;22601;-89
2023/04/07 01:02:03;;;;;;;16.00;13.40;;;;;;;-0.77;97.58;96457.09;109420;1270;22555;-88
2023/04/07 01:04:43;;;;;;;19.00;14.30;;;;;;;-0.77;97.69;96449.92;109469;1263;22515;-88
2023/04/07 01:07:18;;;;;;;15.80;13.00;;;;;;;-0.78;97.47;96450.58;109443;1270;24408;-88
2023/04/07 01:09:59;;;;;;;17.30;14.10;;;;;;;-0.78;97.58;96448.09;109414;1270;22546;-88
2023/04/07 01:12:38;;;;;;;17.90;14.80;;;;;;;-0.77;97.61;96449.05;109619;1269;26572;-88
2023/04/07 01:15:12;;;;;;;16.00;13.20;;;;;;;-0.76;97.56;96443.40;109575;1266;22587;-88
2023/04/07 01:17:49;;;;;;;19.30;16.30;;;;;;;-0.76;97.23;96444.75;109481;1256;22725;-88
2023/04/07 01:20:23;;;;;;;18.20;15.10;;;;;;;-0.74;97.35;96446.78;109289;1271;23170;-88
2023/04/07 01:22:57;;;;;;;20.00;15.80;;;;;;;-0.75;97.42;96447.59;109294;1264;23418;-89
2023/04/07 01:25:52;;;;;;;20.60;16.50;;;;;;;-0.76;97.57;96444.04;109360;1264;22595;-88
2023/04/07 01:28:49;;;;;;;17.90;14.40;;;;;;;-0.77;97.25;96438.59;109303;1268;36848;-89
2023/04/07 01:31:23;;;;;;;18.00;15.30;;;;;;;-0.78;97.35;96444.13;109353;1265;22510;-89
2023/04/07 01:33:55;;;;;;;18.50;15.20;;;;;;;-0.80;97.40;96444.70;109321;1264;22548;-88
2023/04/07 01:36:29;;;;;;;18.60;15.30;;;;;;;-0.82;97.52;96435.88;109287;1264;22993;-89
2023/04/07 01:39:01;;;;;;;20.60;17.50;;;;;;;-0.85;97.81;96436.77;109218;1271;43751;-89
2023/04/07 01:41:33;;;;;;;17.90;13.80;;;;;;;-0.84;97.53;96440.98;109295;1264;22575;-89
2023/04/07 01:44:05;;;;;;;18.70;16.00;;;;;;;-0.84;97.87;96445.98;109291;1268;22598;-89
2023/04/07 01:46:36;;;;;;;20.40;15.90;;;;;;;-0.85;97.69;96445.23;109239;1265;26524;-88
2023/04/07 01:49:08;;;;;;;24.40;17.50;;;;;;;-0.84;97.90;96444.81;109250;1268;88517;-88
2023/04/07 01:51:42;;;;;;;24.80;18.70;;;;;;;-0.83;97.70;96448.77;109331;1265;22517;-88
2023/04/07 01:54:13;;;;;;;22.60;18.40;;;;;;;-0.83;97.78;96450.54;109310;1271;22518;-89
2023/04/07 01:56:44;;;;;;;19.80;16.90;;;;;;;-0.82;97.72;96450.13;109323;1271;22510;-89
2023/04/07 01:59:16;;;;;;;18.50;14.40;;;;;;;-0.82;97.96;96449.58;109246;1264;56366;-89
2023/04/07 02:01:47;;;;;;;20.10;16.30;;;;;;;-0.80;97.81;96451.72;109367;1271;25261;-89
2023/04/07 02:04:29;;;;;;;19.40;15.40;;;;;;;-0.81;98.21;96449.08;109263;1268;22540;-89
2023/04/07 02:07:15;;;;;;;18.30;15.10;;;;;;;-0.81;98.05;96447.89;109258;1266;66481;-89
2023/04/07 02:09:50;;;;;;;17.70;14.70;;;;;;;-0.82;97.98;96442.48;109313;1271;22528;-89
2023/04/07 02:12:23;;;;;;;19.20;14.90;;;;;;;-0.84;98.33;96438.38;109280;1261;22552;-89
2023/04/07 02:14:55;;;;;;;18.50;14.60;;;;;;;-0.88;98.20;96433.13;109287;1271;22600;-89
2023/04/07 02:17:28;;;;;;;22.00;16.60;;;;;;;-0.91;98.20;96430.23;109219;1271;59138;-89
2023/04/07 02:20:01;;;;;;;19.70;14.80;;;;;;;-0.93;98.43;96430.77;109312;1264;22555;-89
2023/04/07 02:22:33;;;;;;;18.90;14.50;;;;;;;-0.94;98.54;96430.14;109268;1271;25387;-89
2023/04/07 02:25:23;;;;;;;20.80;16.40;;;;;;;-0.93;98.64;96424.38;109288;1271;22517;-89
2023/04/07 02:27:57;;;;;;;20.00;17.00;;;;;;;-0.92;98.76;96423.96;109201;1271;66484;-89
2023/04/07 02:30:34;;;;;;;18.50;15.30;;;;;;;-0.88;98.86;96423.53;109283;1265;22522;-88
2023/04/07 02:33:05;;;;;;;18.70;15.50;;;;;;;-0.86;99.07;96416.78;109297;1266;22583;-89
2023/04/07 02:35:36;;;;;;;23.50;16.70;;;;;;;-0.85;98.90;96414.02;109316;1271;22552;-89
2023/04/07 02:38:07;;;;;;;20.10;16.00;;;;;;;-0.84;98.97;96414.06;109292;1271;42981;-88
2023/04/07 02:40:38;;;;;;;21.00;17.60;;;;;;;-0.84;98.86;96409.23;109316;1271;26598;-88
2023/04/07 02:43:09;;;;;;;21.40;17.30;;;;;;;-0.81;99.09;96406.57;109272;1271;22514;-88
2023/04/07 02:45:41;;;;;;;20.10;16.70;;;;;;;-0.77;99.08;96401.27;109239;1271;22655;-88
2023/04/07 02:48:12;;;;;;;21.40;16.70;;;;;;;-0.77;98.96;96399.96;109165;1271;71992;-88
2023/04/07 02:50:43;;;;;;;20.20;16.40;;;;;;;-0.77;98.88;96403.92;109324;1265;22528;-88
2023/04/07 02:53:14;;;;;;;19.50;15.10;;;;;;;-0.78;98.63;96406.65;109351;1260;22535;-88
2023/04/07 02:55:45;;;;;;;19.20;16.80;;;;;;;-0.80;98.88;96410.23;109314;1271;22575;-88
2023/04/07 02:58:17;;;;;;;20.60;16.60;;;;;;;-0.82;98.81;96416.38;109185;1269;41917;-88
2023/04/07 03:00:49;;;;;;;20.40;16.10;;;;;;;-0.82;98.56;96418.70;109323;1271;25335;-87
2023/04/07 03:03:20;;;;;;;21.80;17.40;;;;;;;-0.83;98.80;96416.43;109335;1271;22563;-87
2023/04/07 03:05:51;;;;;;;20.80;17.30;;;;;;;-0.83;98.83;96417.52;109291;1266;22536;-88
2023/04/07 03:08:23;;;;;;;19.50;15.70;;;;;;;-0.83;98.83;96419.83;109280;1264;40580;-88
2023/04/07 03:10:54;;;;;;;20.10;15.00;;;;;;;-0.79;98.95;96427.60;109287;1257;22524;-88
2023/04/07 03:13:25;;;;;;;19.60;15.70;;;;;;;-0.77;98.79;96426.30;109339;1268;22537;-88
2023/04/07 03:15:56;;;;;;;19.90;15.90;;;;;;;-0.75;98.97;96421.11;109268;1271;22662;-88
2023/04/07 03:18:28;;;;;;;23.40;16.30;;;;;;;-0.73;98.80;96419.75;109249;1271;45869;-88
2023/04/07 03:20:59;;;;;;;17.80;14.90;;;;;;;-0.71;98.38;96421.12;109284;1271;23309;-87
2023/04/07 03:23:32;;;;;;;21.00;15.50;;;;;;;-0.70;98.54;96414.73;109328;1264;23210;-88
2023/04/07 03:26:03;;;;;;;19.10;14.90;;;;;;;-0.69;98.31;96412.36;109307;1271;22743;-88
2023/04/07 03:28:43;;;;;;;18.30;14.20;;;;;;;-0.69;98.39;96407.52;109216;1271;79201;-87
2023/04/07 03:31:15;;;;;;;19.40;15.20;;;;;;;-0.70;98.47;96413.17;109316;1271;22556;-86
2023/04/07 03:33:46;;;;;;;18.50;14.40;;;;;;;-0.69;98.42;96420.44;109308;1271;22622;-87
2023/04/07 03:36:17;;;;;;;19.20;15.00;;;;;;;-0.67;98.20;96426.23;109321;1265;22548;-87
2023/04/07 03:38:50;;;;;;;18.90;14.80;;;;;;;-0.64;98.28;96428.17;109274;1271;73600;-87
2023/04/07 03:41:21;;;;;;;21.60;16.70;;;;;;;-0.62;97.98;96430.11;109290;1265;22978;-86
2023/04/07 03:43:52;;;;;;;19.50;15.50;;;;;;;-0.60;97.98;96433.27;109244;1260;24249;-87
2023/04/07 03:46:25;;;;;;;19.90;14.20;;;;;;;-0.60;98.17;96430.81;109248;1271;22517;-87
2023/04/07 03:48:56;;;;;;;20.30;16.10;;;;;;;-0.58;98.19;96434.23;109226;1271;74382;-87
2023/04/07 03:51:28;;;;;;;21.50;15.90;;;;;;;-0.55;98.24;96445.94;109296;1271;22514;-87
2023/04/07 03:53:59;;;;;;;21.00;15.70;;;;;;;-0.55;98.28;96445.14;109348;1271;22610;-88
2023/04/07 03:56:30;;;;;;;19.30;14.00;;;;;;;-0.56;98.01;96439.33;109271;1271;22526;-88
2023/04/07 03:59:02;;;;;;;24.30;17.40;;;;;;;-0.57;98.12;96430.92;109255;1260;91351;-88
2023/04/07 04:01:33;;;;;;;22.80;16.30;;;;;;;-0.59;97.91;96426.92;109311;1271;23082;-88
2023/04/07 04:04:04;;;;;;;21.60;15.80;;;;;;;-0.61;98.22;96426.83;109307;1271;22554;-88
2023/04/07 04:06:36;;;;;;;20.80;16.40;;;;;;;-0.62;98.20;96427.19;109202;1264;22515;-88
2023/04/07 04:09:07;;;;;;;17.60;13.00;;;;;;;-0.62;98.24;96422.46;109261;1268;32717;-88
2023/04/07 04:11:38;;;;;;;20.70;14.70;;;;;;;-0.61;98.27;96413.64;109322;1265;22568;-88
2023/04/07 04:14:09;;;;;;;21.20;15.30;;;;;;;-0.62;98.93;96407.73;109310;1271;22662;-88
2023/04/07 04:16:41;;;;;;;16.90;8.50;;;;;;;-0.62;98.51;96410.45;109311;1271;22505;-89
2023/04/07 04:19:12;;;;;;;19.90;14.30;;;;;;;-0.61;99.01;96425.05;109285;1271;94195;-88
2023/04/07 04:21:43;;;;;;;20.70;14.90;;;;;;;-0.58;98.84;96429.60;109230;1271;24212;-88
2023/04/07 04:24:15;;;;;;;20.20;15.00;;;;;;;-0.55;98.72;96422.73;109236;1271;22511;-88
2023/04/07 04:26:46;;;;;;;20.00;14.50;;;;;;;-0.52;98.83;96422.11;109310;1271;25234;-88
2023/04/07 04:29:17;;;;;;;18.20;12.60;;;;;;;-0.51;98.88;96420.47;109516;1269;23091;-88
2023/04/07 04:31:48;;;;;;;17.30;13.70;;;;;;;-0.51;98.68;96418.55;109570;1269;22514;-88
2023/04/07 04:34:20;;;;;;;18.70;14.30;;;;;;;-0.49;98.83;96423.70;109498;1270;23732;-89
2023/04/07 04:36:51;;;;;;;17.60;13.60;;;;;;;-0.44;99.00;96432.23;109600;1269;22515;-89
2023/04/07 04:39:22;;;;;;;16.30;12.50;;;;;;;-0.41;98.74;96434.02;109508;1269;22529;-88
2023/04/07 04:41:53;;;;;;;19.20;13.50;;;;;;;-0.40;98.77;96432.92;109374;1270;24247;-88
2023/04/07 04:44:25;;;;;;;15.30;11.80;;;;;;;-0.41;98.69;96429.85;109557;1266;23251;-88
2023/04/07 04:46:56;;;;;;;19.50;13.30;;;;;;;-0.42;98.66;96423.48;109497;1269;48568;-89
2023/04/07 04:49:27;;;;;;;17.50;13.20;;;;;;;-0.42;98.85;96427.21;109386;1266;22508;-88
2023/04/07 04:51:58;;;;;;;18.20;13.20;;;;;;;-0.43;98.90;96437.02;109486;1270;22512;-88
2023/04/07 04:54:32;;;;;;;17.70;11.90;;;;;;;-0.42;98.59;96432.38;109449;1265;22558;-89
2023/04/07 04:57:03;;;;;;;17.10;13.60;;;;;;;-0.41;98.73;96429.48;109167;1271;68504;-89
2023/04/07 04:59:35;;;;;;;19.00;13.90;;;;;;;-0.40;98.42;96425.63;109302;1271;22537;-89
2023/04/07 05:02:08;;;;;;;18.80;13.70;;;;;;;-0.40;98.46;96426.08;109394;1270;25336;-88
2023/04/07 05:04:39;;;;;;;18.40;13.60;;;;;;;-0.40;98.63;96427.84;109441;1265;22521;-89
2023/04/07 05:07:11;;;;;;;17.90;13.40;;;;;;;-0.38;98.22;96432.23;109445;1270;82041;-89
2023/04/07 05:09:42;;;;;;;18.40;13.60;;;;;;;-0.38;98.62;96436.55;109341;1269;26427;-89
2023/04/07 05:12:13;;;;;;;17.60;13.00;;;;;;;-0.37;98.48;96437.66;109590;1269;22610;-89
2023/04/07 05:14:45;;;;;;;20.60;15.40;;;;;;;-0.35;98.39;96444.97;109511;1267;22563;-89
2023/04/07 05:17:16;;;;;;;18.20;12.90;;;;;;;-0.32;98.44;96447.35;109338;1260;105160;-89
2023/04/07 05:19:47;;;;;;;17.30;12.90;;;;;;;-0.30;98.64;96451.70;109527;1265;25441;-90
2023/04/07 05:22:18;;;;;;;18.40;13.30;;;;;;;-0.28;98.29;96451.05;109472;1270;22539;-90
2023/04/07 05:24:49;;;;;;;18.40;13.00;;;;;;;-0.25;98.37;96447.47;109533;1263;22579;-91
2023/04/07 05:27:20;;;;;;;18.60;13.60;;;;;;;-0.23;98.51;96441.70;109540;1266;53866;-89
2023/04/07 05:29:51;;;;;;;17.20;13.00;;;;;;;-0.21;98.49;96446.49;109419;1265;22529;-90
2023/04/07 05:32:22;;;;;;;19.70;14.10;;;;;;;-0.17;98.43;96447.66;109631;1269;22530;-89
2023/04/07 05:34:54;;;;;;;16.10;11.40;;;;;;;-0.14;98.44;96449.40;109502;1270;22547;-88
2023/04/07 05:37:25;;;;;;;18.00;12.60;;;;;;;-0.15;98.41;96440.67;109510;1270;42189;-90
2023/04/07 05:39:58;;;;;;;14.20;8.40;;;;;;;-0.18;98.25;96433.16;109491;1264;22542;-89
2023/04/07 05:42:29;;;;;;;15.80;11.50;;;;;;;-0.19;98.57;96431.60;109512;1270;22543;-89
2023/04/07 05:45:00;;;;;;;14.30;10.70;;;;;;;-0.17;98.72;96426.86;109493;1269;22552;-89
2023/04/07 05:47:32;;;;;;;16.60;11.20;;;;;;;-0.12;98.54;96431.11;109494;1270;58030;-89
2023/04/07 05:50:04;;;;;;;15.00;8.80;;;;;;;-0.10;98.13;96421.75;109528;1266;22558;-89
2023/04/07 05:52:35;;;;;;;13.20;8.10;;;;;;;-0.10;98.58;96410.80;109545;1266;22529;-90
2023/04/07 05:55:08;;;;;;;17.20;11.80;;;;;;;-0.09;98.39;96411.88;109491;1270;25407;-89
2023/04/07 05:57:39;;;;;;;14.90;9.70;;;;;;;-0.08;98.63;96411.14;109507;1262;22557;-90
2023/04/07 06:00:13;;;;;;;19.20;11.50;;;;;;;-0.08;98.49;96426.42;109498;1270;22589;-90
2023/04/07 06:02:45;;;;;;;17.70;12.60;;;;;;;-0.08;98.39;96434.67;109483;1270;22518;-90
2023/04/07 06:05:16;;;;;;;16.90;10.40;;;;;;;-0.05;98.63;96435.16;109522;1270;22780;-89
2023/04/07 06:07:47;;;;;;;18.40;13.20;;;;;;;-0.04;98.42;96434.79;109533;1267;22531;-88
2023/04/07 06:10:19;;;;;;;18.00;13.10;;;;;;;-0.02;98.46;96428.79;109487;1265;22566;-90
2023/04/07 06:12:50;;;;;;;17.50;11.70;;;;;;;-0.02;98.33;96431.39;109432;1270;22520;-90
2023/04/07 06:15:21;;;;;;;18.80;12.60;;;;;;;-0.03;98.53;96433.25;109323;1270;22567;-91
2023/04/07 06:17:52;;;;;;;19.30;14.00;;;;;;;-0.02;98.27;96431.20;109490;1267;26093;-90
2023/04/07 06:20:24;;;;;;;21.40;12.90;;;;;;;-0.02;98.47;96429.67;109511;1270;22504;-90
2023/04/07 06:22:55;;;;;;;19.30;13.50;;;;;;;-0.03;98.65;96431.69;109535;1270;22622;-90
2023/04/07 06:25:26;;;;;;;19.70;14.40;;;;;;;-0.02;98.65;96430.03;109550;1269;22548;-89
2023/04/07 06:27:57;;;;;;;17.70;11.50;;;;;;;-0.02;98.57;96421.61;109400;1270;26616;-90
2023/04/07 06:30:28;;;;;;;13.60;10.00;;;;;;;-0.04;98.68;96420.80;109544;1270;22750;-90
2023/04/07 06:32:59;;;;;;;19.50;14.10;;;;;;;-0.08;98.72;96423.00;109556;1270;23280;-91
2023/04/07 06:35:30;;;;;;;19.30;13.20;;;;;;;-0.08;98.89;96426.11;109622;1269;22520;-90
2023/04/07 06:38:02;;;;;;;18.50;12.70;;;;;;;-0.06;98.80;96419.55;109479;1267;26041;-91
2023/04/07 06:40:33;;;;;;;21.50;14.40;;;;;;;-0.07;99.07;96419.47;109618;1269;24460;-90
2023/04/07 06:43:05;;;;;;;18.50;12.50;;;;;;;-0.06;99.07;96425.67;109780;1270;22553;-91
2023/04/07 06:45:36;;;;;;;17.60;10.70;;;;;;;-0.03;99.17;96423.92;109561;1264;22515;-90
2023/04/07 06:48:09;;;;;;;17.20;11.40;;;;;;;-0.01;99.14;96426.59;109309;1270;22511;-89
2023/04/07 06:50:40;;;;;;;15.20;10.80;;;;;;;0.03;99.39;96425.24;109540;1270;22514;-89
2023/04/07 06:53:12;;;;;;;16.90;11.60;;;;;;;0.08;99.25;96423.97;109556;1267;26449;-88
2023/04/07 06:55:43;;;;;;;18.10;13.00;;;;;;;0.14;99.20;96433.41;109379;1268;22517;-89
2023/04/07 06:58:14;;;;;;;15.90;11.60;;;;;;;0.14;99.06;96437.70;109476;1268;22507;-88
2023/04/07 07:00:45;;;;;;;17.40;12.10;;;;;;;0.14;99.23;96440.48;109526;1270;23456;-88
2023/04/07 07:03:16;;;;;;;17.80;12.20;;;;;;;0.12;98.85;96435.50;109296;1265;22515;-89
2023/04/07 07:05:48;;;;;;;16.90;10.90;;;;;;;0.10;99.17;96435.09;109508;1270;22555;-88
2023/04/07 07:08:19;;;;;;;19.90;13.80;;;;;;;0.11;98.94;96428.90;109552;1263;22506;-88
2023/04/07 07:10:50;;;;;;;18.40;10.30;;;;;;;0.17;98.99;96430.50;109784;1269;24223;-88
2023/04/07 07:13:23;;;;;;;21.20;14.40;;;;;;;0.22;98.96;96425.48;109571;1268;22525;-88
2023/04/07 07:15:54;;;;;;;17.50;13.10;;;;;;;0.27;99.32;96431.34;109496;1270;23240;-88
2023/04/07 07:18:26;;;;;;;18.40;13.40;;;;;;;0.33;98.71;96433.46;109516;1269;22922;-89
2023/04/07 07:20:57;;;;;;;16.30;11.70;;;;;;;0.35;98.98;96438.09;109359;1270;25566;-88
2023/04/07 07:23:31;;;;;;;18.30;13.50;;;;;;;0.37;98.75;96435.54;109604;1269;22584;-88
2023/04/07 07:26:02;;;;;;;19.10;12.80;;;;;;;0.35;98.65;96440.13;109424;1268;27477;-89
2023/04/07 07:28:33;;;;;;;19.20;14.00;;;;;;;0.33;98.71;96441.08;109504;1269;24266;-89
2023/04/07 07:31:11;;;;;;;17.20;10.70;;;;;;;0.31;98.64;96432.92;109342;1270;22526;-88
2023/04/07 07:33:44;;;;;;;17.70;12.90;;;;;;;0.28;98.56;96433.98;109620;1269;22614;-88
2023/04/07 07:36:16;;;;;;;18.30;13.50;;;;;;;0.28;98.60;96432.77;109521;1269;22554;-88
2023/04/07 07:38:47;;;;;;;20.50;13.30;;;;;;;0.30;98.80;96436.58;109440;1270;23013;-89
2023/04/07 07:41:18;;;;;;;14.60;10.80;;;;;;;0.38;98.98;96431.59;109515;1270;22511;-88
2023/04/07 07:43:49;;;;;;;11.80;8.40;;;;;;;0.42;98.79;96429.02;109501;1270;22579;-88
2023/04/07 07:46:22;;;;;;;18.90;10.30;;;;;;;0.42;98.71;96428.30;109425;1270;23210;-88
2023/04/07 07:48:54;;;;;;;17.70;12.70;;;;;;;0.38;98.68;96439.64;109417;1270;51801;-88
2023/04/07 07:51:26;;;;;;;18.40;12.50;;;;;;;0.38;98.49;96446.23;109565;1269;22517;-87
2023/04/07 07:53:58;;;;;;;16.60;11.50;;;;;;;0.40;98.65;96445.52;109563;1268;23776;-87
2023/04/07 07:56:29;;;;;;;15.20;8.60;;;;;;;0.39;98.80;96442.53;109374;1270;23231;-88
2023/04/07 07:59:00;;;;;;;17.30;12.60;;;;;;;0.36;98.98;96443.23;109458;1270;65207;-89
2023/04/07 08:01:31;;;;;;;14.70;10.40;;;;;;;0.37;98.68;96444.47;109538;1269;22543;-88
2023/04/07 08:04:03;;;;;;;19.70;10.90;;;;;;;0.39;98.92;96440.88;109522;1270;22526;-87
2023/04/07 08:06:35;;;;;;;15.50;10.50;;;;;;;0.48;99.06;96436.86;109444;1268;25411;-87
2023/04/07 08:09:07;;;;;;;19.50;13.40;;;;;;;0.54;98.84;96433.57;109491;1270;40011;-87
2023/04/07 08:11:38;;;;;;;15.50;10.90;;;;;;;0.57;98.77;96434.98;109476;1270;22580;-88
2023/04/07 08:14:09;;;;;;;17.50;12.50;;;;;;;0.60;98.43;96442.86;109401;1270;22531;-87
2023/04/07 08:16:43;;;;;;;17.70;12.80;;;;;;;0.60;98.56;96444.86;109428;1270;22550;-87
2023/04/07 08:19:15;;;;;;;18.00;12.30;;;;;;;0.54;98.45;96450.02;109486;1269;117338;-87
2023/04/07 08:21:46;;;;;;;19.20;12.70;;;;;;;0.53;98.45;96446.41;109584;1270;22640;-87
2023/04/07 08:24:17;;;;;;;14.80;11.70;;;;;;;0.53;98.33;96449.02;109536;1270;22526;-87
2023/04/07 08:26:49;;;;;;;10.30;7.10;;;;;;;0.49;98.54;96453.26;109540;1270;22585;-87
2023/04/07 08:29:21;;;;;;;11.30;7.70;;;;;;;0.41;98.38;96454.50;109236;1271;22599;-87
2023/04/07 08:31:52;;;;;;;16.50;11.30;;;;;;;0.36;98.42;96458.73;109075;1268;200897;-88
2023/04/07 08:34:24;;;;;;;16.60;11.80;;;;;;;0.37;98.96;96456.36;109262;1271;22546;-87
2023/04/07 08:36:56;;;;;;;15.20;11.20;;;;;;;0.38;98.92;96455.02;109164;1267;72220;-87
2023/04/07 08:39:27;;;;;;;17.00;12.40;;;;;;;0.40;98.84;96457.83;109258;1266;22636;-87
2023/04/07 08:41:59;;;;;;;16.60;12.90;;;;;;;0.44;99.09;96455.20;109267;1271;22514;-87
2023/04/07 08:44:32;;;;;;;17.30;11.50;;;;;;;0.47;99.08;96449.04;109272;1271;22536;-88
2023/04/07 08:47:07;;;;;;;19.50;14.00;;;;;;;0.49;99.02;96446.80;109192;1269;62924;-87
2023/04/07 08:49:45;;;;;;;18.20;12.50;;;;;;;0.56;98.85;96445.14;109356;1271;22554;-87
2023/04/07 08:52:18;;;;;;;16.50;11.80;;;;;;;0.65;98.99;96448.02;109254;1261;22509;-86
2023/04/07 08:54:49;;;;;;;16.50;10.70;;;;;;;0.72;98.99;96446.85;109177;1271;22949;-87
2023/04/07 08:57:21;;;;;;;15.10;11.10;;;;;;;0.78;98.99;96448.58;109167;1270;48603;-86
2023/04/07 08:59:53;;;;;;;13.50;10.60;;;;;;;0.86;98.60;96447.83;109288;1265;22550;-88
2023/04/07 09:02:25;;;;;;;12.10;8.80;;;;;;;0.95;98.31;96445.46;109259;1264;24942;-87
2023/04/07 09:04:57;;;;;;;14.40;10.30;;;;;;;0.99;98.09;96449.46;109263;1271;22529;-88
2023/04/07 09:07:31;;;;;;;12.40;8.50;;;;;;;1.06;98.04;96444.71;109247;1268;65168;-87
2023/04/07 09:10:04;;;;;;;13.70;9.20;;;;;;;1.04;97.51;96442.17;109296;1271;23323;-87
2023/04/07 09:12:36;;;;;;;11.80;8.60;;;;;;;1.07;97.54;96436.35;109246;1268;23191;-87
2023/04/07 09:15:08;;;;;;;14.30;10.50;;;;;;;1.06;97.37;96437.41;109260;1271;22529;-87
2023/04/07 09:17:40;;;;;;;14.70;10.90;;;;;;;1.09;97.51;96436.66;109182;1266;55392;-87
2023/04/07 09:20:15;;;;;;;11.80;8.00;;;;;;;1.20;97.58;96434.80;109223;1271;22576;-87
2023/04/07 09:22:49;;;;;;;13.70;9.10;;;;;;;1.19;97.06;96434.73;109289;1271;22511;-86
2023/04/07 09:25:25;;;;;;;14.70;10.90;;;;;;;1.14;97.04;96433.88;109209;1271;23231;-86
2023/04/07 09:28:01;;;;;;;13.20;9.30;;;;;;;1.22;97.48;96425.40;109209;1271;72569;-87
2023/04/07 09:30:34;;;;;;;11.70;8.60;;;;;;;1.31;97.28;96424.89;109274;1264;22581;-86
2023/04/07 09:33:05;;;;;;;11.80;8.50;;;;;;;1.32;96.76;96422.61;109275;1271;25300;-86
2023/04/07 09:35:53;;;;;;;10.70;7.80;;;;;;;1.29;96.60;96424.95;109205;1264;25355;-86
2023/04/07 09:38:32;;;;;;;11.10;8.10;;;;;;;1.27;96.63;96430.64;109211;1271;54752;-87
2023/04/07 09:41:09;;;;;;;11.40;8.30;;;;;;;1.32;96.58;96428.61;109174;1271;22558;-86
2023/04/07 09:43:44;;;;;;;12.60;8.40;;;;;;;1.41;96.72;96424.61;109233;1271;22532;-87
2023/04/07 09:46:18;;;;;;;8.50;5.20;;;;;;;1.53;96.78;96427.35;109357;1267;22555;-87
2023/04/07 09:49:01;;;;;;;12.90;9.60;;;;;;;1.60;96.18;96424.55;109140;1269;58777;-87
2023/04/07 09:51:33;;;;;;;13.30;8.90;;;;;;;1.65;96.28;96426.07;109256;1271;22728;-87
2023/04/07 09:54:05;;;;;;;12.50;9.50;;;;;;;1.70;95.97;96422.70;109211;1271;22537;-87
2023/04/07 09:56:44;;;;;;;13.80;9.60;;;;;;;1.69;95.82;96422.63;109234;1271;22531;-87
2023/04/07 09:59:16;;;;;;;;;;;;;;;1.70;95.76;96425.63;109192;1271;84493;-87
2023/04/07 10:01:47;;;;;;;14.60;9.50;;;;;;;1.72;95.64;96432.04;109218;1268;22551;-87
2023/04/07 10:04:19;;;;;;;10.60;7.20;;;;;;;1.68;95.45;96430.88;109197;1268;22628;-87
2023/04/07 10:06:52;;;;;;;14.00;9.00;;;;;;;1.57;95.26;96436.89;109263;1271;22527;-87
2023/04/07 10:09:25;;;;;;;13.00;9.10;;;;;;;1.49;95.24;96439.02;109304;1270;22631;-87
2023/04/07 10:11:58;;;;;;;13.50;8.80;;;;;;;1.51;95.36;96437.42;109513;1270;22511;-87
2023/04/07 10:14:32;;;;;;;11.90;9.30;;;;;;;1.48;95.43;96434.54;109526;1270;23278;-87
2023/04/07 10:17:06;;;;;;;13.40;8.80;;;;;;;1.46;95.45;96432.61;109393;1270;46790;-87
2023/04/07 10:19:40;;;;;;;13.60;9.70;;;;;;;1.46;95.39;96435.66;109299;1268;22602;-87
2023/04/07 10:22:12;;;;;;;13.30;8.60;;;;;;;1.46;95.52;96434.61;109277;1270;22518;-87
2023/04/07 10:24:54;;;;;;;14.20;9.80;;;;;;;1.42;95.23;96432.33;109275;1270;22543;-87
2023/04/07 10:27:34;;;;;;;11.10;7.40;;;;;;;1.42;95.38;96425.80;109276;1266;50181;-86
2023/04/07 10:30:15;;;;;;;14.60;10.60;;;;;;;1.38;95.53;96423.00;109266;1265;22603;-86
2023/04/07 10:32:51;;;;;;;14.30;9.00;;;;;;;1.39;95.49;96425.60;109258;1271;22522;-86
2023/04/07 10:35:25;;;;;;;15.40;11.70;;;;;;;1.45;95.72;96424.91;109419;1270;22577;-87
2023/04/07 10:38:15;;;;;;;12.60;7.70;;;;;;;1.51;95.77;96418.66;109239;1268;47937;-87
2023/04/07 10:40:47;;;;;;;13.90;10.40;;;;;;;1.54;95.55;96422.10;109546;1270;22625;-87
2023/04/07 10:43:39;;;;;;;12.70;9.70;;;;;;;1.57;95.54;96422.95;109254;1270;22541;-88
2023/04/07 10:46:11;;;;;;;13.60;10.00;;;;;;;1.62;95.46;96422.86;109254;1271;22522;-88
2023/04/07 10:48:42;;;;;;;13.90;9.00;;;;;;;1.63;95.31;96431.98;109333;1262;73206;-88
2023/04/07 10:51:20;;;;;;;15.60;10.80;;;;;;;1.63;95.10;96428.95;109523;1270;22508;-88
2023/04/07 10:54:21;;;;;;;14.40;9.80;;;;;;;1.62;95.34;96422.02;109567;1262;25218;-88
2023/04/07 10:57:23;;;;;;;16.90;11.50;;;;;;;1.66;95.33;96417.61;109535;1270;22518;-88
2023/04/07 11:00:17;;;;;;;15.50;11.80;;;;;;;1.65;95.26;96424.09;109580;1270;22737;-88
2023/04/07 11:02:48;;;;;;;17.00;13.20;;;;;;;1.69;95.28;96426.38;109481;1270;22512;-88
2023/04/07 11:05:24;;;;;;;16.70;13.10;;;;;;;1.76;95.34;96432.33;109518;1270;22577;-88
2023/04/07 11:08:01;;;;;;;16.20;12.00;;;;;;;1.84;95.19;96427.86;109531;1269;88439;-87
2023/04/07 11:10:40;;;;;;;17.20;11.70;;;;;;;1.87;95.11;96424.55;109666;1270;22553;-88
2023/04/07 11:13:11;;;;;;;17.20;12.50;;;;;;;1.84;94.85;96419.90;109305;1248;22528;-87
2023/04/07 11:15:43;;;;;;;15.10;10.00;;;;;;;1.81;94.84;96427.41;109523;1270;22516;-87
2023/04/07 11:18:18;;;;;;;15.20;12.30;;;;;;;1.79;94.85;96430.50;109247;1267;59773;-86
2023/04/07 11:20:56;;;;;;;14.30;10.20;;;;;;;1.74;94.81;96430.56;109653;1269;22539;-87
2023/04/07 11:23:28;;;;;;;16.90;12.00;;;;;;;1.71;94.94;96426.79;109544;1269;22553;-87
2023/04/07 11:26:03;;;;;;;15.40;11.30;;;;;;;1.70;94.97;96437.54;109534;1270;22531;-87
2023/04/07 11:28:39;;;;;;;16.90;12.90;;;;;;;1.76;95.14;96435.63;109545;1267;79489;-87
2023/04/07 11:31:11;;;;;;;18.40;14.20;;;;;;;1.83;95.12;96438.44;109591;1267;24294;-87
2023/04/07 11:33:52;;;;;;;16.40;12.50;;;;;;;1.84;94.92;96443.14;109400;1269;22524;-87
2023/04/07 11:36:31;;;;;;;16.90;12.90;;;;;;;1.88;95.09;96444.69;109324;1270;25076;-86
2023/04/07 11:39:06;;;;;;;15.80;11.60;;;;;;;1.95;95.01;96440.48;109475;1267;58880;-86
2023/04/07 11:41:48;;;;;;;18.00;13.00;;;;;;;2.02;95.08;96444.89;109337;1270;22599;-86